sensor_id;sensor_type;location;lat;lon;timestamp;P1;durP1;ratioP1;P2;durP2;ratioP2
21979;SDS011;11154;48.558;9.234;2024-03-07T00:01:20;28.10;;;20.33;;
21979;SDS011;11154;48.558;9.234;2024-03-07T00:03:23;26.30;;;19.13;;
21979;SDS011;11154;48.558;9.234;2024-03-07T00:05:25;26.70;;;19.52;;
21979;SDS011;11154;48.558;9.234;2024-03-07T00:07:27;28.83;;;19.02;;
21979;SDS011;11154;48.558;9.234;2024-03-07T00:09:27;28.25;;;19.92;;
21979;SDS011;11154;48.558;9.234;2024-03-07T00:11:29;28.20;;;19.90;;
21979;SDS011;11154;48.558;9.234;2024-03-07T00:13:31;26.05;;;18.83;;
21979;SDS011;11154;48.558;9.234;2024-03-07T00:15:33;28.67;;;18.80;;
21979;SDS011;11154;48.558;9.234;2024-03-07T00:17:35;27.30;;;19.38;;
21979;SDS011;11154;48.558;9.234;2024-03-07T00:19:38;27.38;;;19.15;;
21979;SDS011;11154;48.558;9.234;2024-03-07T00:21:39;25.80;;;18.63;;
21979;SDS011;11154;48.558;9.234;2024-03-07T00:23:41;27.25;;;19.45;;
21979;SDS011;11154;48.558;9.234;2024-03-07T00:25:43;27.73;;;19.40;;
21979;SDS011;11154;48.558;9.234;2024-03-07T00:27:45;28.48;;;19.85;;
21979;SDS011;11154;48.558;9.234;2024-03-07T00:29:47;28.08;;;18.70;;
21979;SDS011;11154;48.558;9.234;2024-03-07T00:31:53;26.77;;;19.65;;
21979;SDS011;11154;48.558;9.234;2024-03-07T00:33:54;25.00;;;18.17;;
21979;SDS011;11154;48.558;9.234;2024-03-07T00:35:58;29.42;;;19.50;;
21979;SDS011;11154;48.558;9.234;2024-03-07T00:38:01;28.27;;;18.70;;
21979;SDS011;11154;48.558;9.234;2024-03-07T00:40:03;26.77;;;18.48;;
21979;SDS011;11154;48.558;9.234;2024-03-07T00:42:06;28.13;;;19.40;;
21979;SDS011;11154;48.558;9.234;2024-03-07T00:44:08;26.33;;;18.33;;
21979;SDS011;11154;48.558;9.234;2024-03-07T00:46:10;28.70;;;18.13;;
21979;SDS011;11154;48.558;9.234;2024-03-07T00:48:11;27.90;;;18.73;;
21979;SDS011;11154;48.558;9.234;2024-03-07T00:50:13;27.33;;;19.13;;
21979;SDS011;11154;48.558;9.234;2024-03-07T00:52:16;25.23;;;18.55;;
21979;SDS011;11154;48.558;9.234;2024-03-07T00:54:18;26.13;;;18.25;;
21979;SDS011;11154;48.558;9.234;2024-03-07T00:56:19;27.75;;;19.25;;
21979;SDS011;11154;48.558;9.234;2024-03-07T00:58:22;28.50;;;18.63;;
21979;SDS011;11154;48.558;9.234;2024-03-07T01:00:23;25.33;;;18.25;;
21979;SDS011;11154;48.558;9.234;2024-03-07T01:02:25;26.55;;;18.42;;
21979;SDS011;11154;48.558;9.234;2024-03-07T01:04:26;27.38;;;18.92;;
21979;SDS011;11154;48.558;9.234;2024-03-07T01:06:31;26.70;;;18.55;;
21979;SDS011;11154;48.558;9.234;2024-03-07T01:08:34;27.92;;;19.38;;
21979;SDS011;11154;48.558;9.234;2024-03-07T01:10:36;28.75;;;19.17;;
21979;SDS011;11154;48.558;9.234;2024-03-07T01:12:38;30.48;;;20.00;;
21979;SDS011;11154;48.558;9.234;2024-03-07T01:14:39;26.45;;;18.17;;
21979;SDS011;11154;48.558;9.234;2024-03-07T01:16:41;25.30;;;18.00;;
21979;SDS011;11154;48.558;9.234;2024-03-07T01:18:42;24.77;;;18.90;;
21979;SDS011;11154;48.558;9.234;2024-03-07T01:20:43;26.42;;;18.88;;
21979;SDS011;11154;48.558;9.234;2024-03-07T01:22:46;26.67;;;18.02;;
21979;SDS011;11154;48.558;9.234;2024-03-07T01:24:49;25.30;;;18.40;;
21979;SDS011;11154;48.558;9.234;2024-03-07T01:26:51;27.95;;;19.65;;
21979;SDS011;11154;48.558;9.234;2024-03-07T01:28:53;27.33;;;19.63;;
21979;SDS011;11154;48.558;9.234;2024-03-07T01:30:55;27.02;;;19.00;;
21979;SDS011;11154;48.558;9.234;2024-03-07T01:32:56;25.38;;;18.60;;
21979;SDS011;11154;48.558;9.234;2024-03-07T01:34:57;26.88;;;18.17;;
21979;SDS011;11154;48.558;9.234;2024-03-07T01:36:58;28.17;;;17.85;;
21979;SDS011;11154;48.558;9.234;2024-03-07T01:39:00;27.10;;;18.55;;
21979;SDS011;11154;48.558;9.234;2024-03-07T01:41:03;27.48;;;19.50;;
21979;SDS011;11154;48.558;9.234;2024-03-07T01:43:04;29.38;;;18.83;;
21979;SDS011;11154;48.558;9.234;2024-03-07T01:45:06;31.48;;;20.58;;
21979;SDS011;11154;48.558;9.234;2024-03-07T01:47:09;28.20;;;19.92;;
21979;SDS011;11154;48.558;9.234;2024-03-07T01:49:11;28.92;;;20.40;;
21979;SDS011;11154;48.558;9.234;2024-03-07T01:51:13;28.33;;;19.48;;
21979;SDS011;11154;48.558;9.234;2024-03-07T01:53:15;29.17;;;19.85;;
21979;SDS011;11154;48.558;9.234;2024-03-07T01:55:17;29.10;;;20.80;;
21979;SDS011;11154;48.558;9.234;2024-03-07T01:57:21;31.13;;;19.60;;
21979;SDS011;11154;48.558;9.234;2024-03-07T01:59:23;27.92;;;20.60;;
21979;SDS011;11154;48.558;9.234;2024-03-07T02:01:24;25.23;;;21.65;;
21979;SDS011;11154;48.558;9.234;2024-03-07T02:03:26;28.70;;;23.55;;
21979;SDS011;11154;48.558;9.234;2024-03-07T02:05:28;27.27;;;23.60;;
21979;SDS011;11154;48.558;9.234;2024-03-07T02:07:28;29.98;;;26.25;;
21979;SDS011;11154;48.558;9.234;2024-03-07T02:09:30;30.90;;;27.35;;
21979;SDS011;11154;48.558;9.234;2024-03-07T02:11:31;34.15;;;28.15;;
21979;SDS011;11154;48.558;9.234;2024-03-07T02:13:34;33.25;;;28.00;;
21979;SDS011;11154;48.558;9.234;2024-03-07T02:15:36;35.38;;;28.95;;
21979;SDS011;11154;48.558;9.234;2024-03-07T02:17:38;36.30;;;29.75;;
21979;SDS011;11154;48.558;9.234;2024-03-07T02:19:39;35.33;;;29.52;;
21979;SDS011;11154;48.558;9.234;2024-03-07T02:21:42;36.40;;;30.75;;
21979;SDS011;11154;48.558;9.234;2024-03-07T02:23:44;36.63;;;30.92;;
21979;SDS011;11154;48.558;9.234;2024-03-07T02:25:45;36.75;;;30.48;;
21979;SDS011;11154;48.558;9.234;2024-03-07T02:27:47;37.85;;;32.30;;
21979;SDS011;11154;48.558;9.234;2024-03-07T02:29:48;38.08;;;31.42;;
21979;SDS011;11154;48.558;9.234;2024-03-07T02:31:51;37.92;;;31.70;;
21979;SDS011;11154;48.558;9.234;2024-03-07T02:33:52;37.92;;;31.55;;
21979;SDS011;11154;48.558;9.234;2024-03-07T02:35:54;37.85;;;31.17;;
21979;SDS011;11154;48.558;9.234;2024-03-07T02:37:56;37.38;;;32.08;;
21979;SDS011;11154;48.558;9.234;2024-03-07T02:39:58;37.30;;;32.22;;
21979;SDS011;11154;48.558;9.234;2024-03-07T02:42:00;38.00;;;31.83;;
21979;SDS011;11154;48.558;9.234;2024-03-07T02:44:01;39.22;;;32.17;;
21979;SDS011;11154;48.558;9.234;2024-03-07T02:46:03;39.05;;;33.20;;
21979;SDS011;11154;48.558;9.234;2024-03-07T02:48:06;39.67;;;33.38;;
21979;SDS011;11154;48.558;9.234;2024-03-07T02:50:09;42.08;;;34.65;;
21979;SDS011;11154;48.558;9.234;2024-03-07T02:52:10;38.40;;;33.28;;
21979;SDS011;11154;48.558;9.234;2024-03-07T02:54:14;36.13;;;31.95;;
21979;SDS011;11154;48.558;9.234;2024-03-07T02:56:15;36.63;;;32.63;;
21979;SDS011;11154;48.558;9.234;2024-03-07T02:58:17;39.03;;;33.60;;
21979;SDS011;11154;48.558;9.234;2024-03-07T03:00:17;40.53;;;34.28;;
21979;SDS011;11154;48.558;9.234;2024-03-07T03:02:26;40.47;;;33.25;;
21979;SDS011;11154;48.558;9.234;2024-03-07T03:04:28;43.50;;;33.72;;
21979;SDS011;11154;48.558;9.234;2024-03-07T03:06:29;38.83;;;33.78;;
21979;SDS011;11154;48.558;9.234;2024-03-07T03:08:31;38.28;;;33.95;;
21979;SDS011;11154;48.558;9.234;2024-03-07T03:10:36;39.03;;;34.72;;
21979;SDS011;11154;48.558;9.234;2024-03-07T03:12:37;40.10;;;33.92;;
21979;SDS011;11154;48.558;9.234;2024-03-07T03:14:38;39.30;;;33.70;;
21979;SDS011;11154;48.558;9.234;2024-03-07T03:16:42;40.53;;;34.50;;
21979;SDS011;11154;48.558;9.234;2024-03-07T03:18:44;38.08;;;33.88;;
21979;SDS011;11154;48.558;9.234;2024-03-07T03:20:45;42.92;;;35.65;;
21979;SDS011;11154;48.558;9.234;2024-03-07T03:22:48;41.58;;;33.97;;
21979;SDS011;11154;48.558;9.234;2024-03-07T03:24:50;40.45;;;34.45;;
21979;SDS011;11154;48.558;9.234;2024-03-07T03:26:56;40.65;;;33.95;;
21979;SDS011;11154;48.558;9.234;2024-03-07T03:28:58;41.20;;;34.13;;
21979;SDS011;11154;48.558;9.234;2024-03-07T03:31:00;42.60;;;35.25;;
21979;SDS011;11154;48.558;9.234;2024-03-07T03:33:02;40.22;;;35.83;;
21979;SDS011;11154;48.558;9.234;2024-03-07T03:35:04;40.65;;;35.20;;
21979;SDS011;11154;48.558;9.234;2024-03-07T03:37:06;41.05;;;34.97;;
21979;SDS011;11154;48.558;9.234;2024-03-07T03:39:09;41.00;;;35.63;;
21979;SDS011;11154;48.558;9.234;2024-03-07T03:41:14;42.15;;;35.53;;
21979;SDS011;11154;48.558;9.234;2024-03-07T03:43:18;41.13;;;35.30;;
21979;SDS011;11154;48.558;9.234;2024-03-07T03:45:19;39.38;;;34.88;;
21979;SDS011;11154;48.558;9.234;2024-03-07T03:47:21;40.88;;;35.63;;
21979;SDS011;11154;48.558;9.234;2024-03-07T03:49:22;41.50;;;35.30;;
21979;SDS011;11154;48.558;9.234;2024-03-07T03:51:23;40.90;;;35.00;;
21979;SDS011;11154;48.558;9.234;2024-03-07T03:53:25;43.20;;;35.63;;
21979;SDS011;11154;48.558;9.234;2024-03-07T03:55:26;41.95;;;36.33;;
21979;SDS011;11154;48.558;9.234;2024-03-07T03:57:29;44.55;;;38.00;;
21979;SDS011;11154;48.558;9.234;2024-03-07T03:59:33;42.70;;;36.28;;
21979;SDS011;11154;48.558;9.234;2024-03-07T04:01:34;47.97;;;34.70;;
21979;SDS011;11154;48.558;9.234;2024-03-07T04:03:36;46.00;;;33.10;;
21979;SDS011;11154;48.558;9.234;2024-03-07T04:05:37;39.83;;;32.42;;
21979;SDS011;11154;48.558;9.234;2024-03-07T04:07:41;44.58;;;32.42;;
21979;SDS011;11154;48.558;9.234;2024-03-07T04:09:43;37.90;;;29.95;;
21979;SDS011;11154;48.558;9.234;2024-03-07T04:11:45;38.05;;;30.20;;
21979;SDS011;11154;48.558;9.234;2024-03-07T04:13:47;38.30;;;29.08;;
21979;SDS011;11154;48.558;9.234;2024-03-07T04:15:50;38.97;;;28.92;;
21979;SDS011;11154;48.558;9.234;2024-03-07T04:17:52;38.13;;;28.15;;
21979;SDS011;11154;48.558;9.234;2024-03-07T04:19:53;36.10;;;27.38;;
21979;SDS011;11154;48.558;9.234;2024-03-07T04:21:54;40.42;;;27.85;;
21979;SDS011;11154;48.558;9.234;2024-03-07T04:23:55;37.00;;;27.27;;
21979;SDS011;11154;48.558;9.234;2024-03-07T04:25:57;38.95;;;26.42;;
21979;SDS011;11154;48.558;9.234;2024-03-07T04:27:58;40.63;;;27.67;;
21979;SDS011;11154;48.558;9.234;2024-03-07T04:29:59;36.45;;;26.52;;
21979;SDS011;11154;48.558;9.234;2024-03-07T04:32:04;35.13;;;24.73;;
21979;SDS011;11154;48.558;9.234;2024-03-07T04:34:06;38.65;;;27.83;;
21979;SDS011;11154;48.558;9.234;2024-03-07T04:36:08;39.22;;;27.48;;
21979;SDS011;11154;48.558;9.234;2024-03-07T04:38:10;40.75;;;27.73;;
21979;SDS011;11154;48.558;9.234;2024-03-07T04:40:15;41.92;;;29.45;;
21979;SDS011;11154;48.558;9.234;2024-03-07T04:42:16;37.60;;;27.65;;
21979;SDS011;11154;48.558;9.234;2024-03-07T04:44:17;36.75;;;26.90;;
21979;SDS011;11154;48.558;9.234;2024-03-07T04:46:18;39.10;;;27.67;;
21979;SDS011;11154;48.558;9.234;2024-03-07T04:48:21;39.15;;;26.98;;
21979;SDS011;11154;48.558;9.234;2024-03-07T04:50:23;39.63;;;27.25;;
21979;SDS011;11154;48.558;9.234;2024-03-07T04:52:26;39.08;;;27.35;;
21979;SDS011;11154;48.558;9.234;2024-03-07T04:54:27;37.35;;;26.10;;
21979;SDS011;11154;48.558;9.234;2024-03-07T04:56:30;34.35;;;25.52;;
21979;SDS011;11154;48.558;9.234;2024-03-07T04:58:32;33.70;;;25.30;;
21979;SDS011;11154;48.558;9.234;2024-03-07T05:00:33;36.03;;;25.95;;
21979;SDS011;11154;48.558;9.234;2024-03-07T05:02:35;36.10;;;26.25;;
21979;SDS011;11154;48.558;9.234;2024-03-07T05:04:38;35.25;;;26.27;;
21979;SDS011;11154;48.558;9.234;2024-03-07T05:06:40;37.80;;;27.63;;
21979;SDS011;11154;48.558;9.234;2024-03-07T05:08:40;35.40;;;26.30;;
21979;SDS011;11154;48.558;9.234;2024-03-07T05:10:42;34.90;;;25.02;;
21979;SDS011;11154;48.558;9.234;2024-03-07T05:12:44;39.60;;;26.80;;
21979;SDS011;11154;48.558;9.234;2024-03-07T05:14:46;37.53;;;25.75;;
21979;SDS011;11154;48.558;9.234;2024-03-07T05:16:47;37.97;;;26.63;;
21979;SDS011;11154;48.558;9.234;2024-03-07T05:19:04;38.22;;;26.65;;
21979;SDS011;11154;48.558;9.234;2024-03-07T05:21:09;38.90;;;25.35;;
21979;SDS011;11154;48.558;9.234;2024-03-07T05:23:25;36.60;;;25.45;;
21979;SDS011;11154;48.558;9.234;2024-03-07T05:25:26;35.78;;;26.00;;
21979;SDS011;11154;48.558;9.234;2024-03-07T05:27:28;37.25;;;26.40;;
21979;SDS011;11154;48.558;9.234;2024-03-07T05:29:30;37.22;;;26.52;;
21979;SDS011;11154;48.558;9.234;2024-03-07T05:31:30;36.05;;;26.65;;
21979;SDS011;11154;48.558;9.234;2024-03-07T05:33:34;35.03;;;26.27;;
21979;SDS011;11154;48.558;9.234;2024-03-07T05:35:35;33.80;;;25.38;;
21979;SDS011;11154;48.558;9.234;2024-03-07T05:37:38;37.08;;;28.13;;
21979;SDS011;11154;48.558;9.234;2024-03-07T05:39:41;36.22;;;25.77;;
21979;SDS011;11154;48.558;9.234;2024-03-07T05:41:44;37.72;;;26.77;;
21979;SDS011;11154;48.558;9.234;2024-03-07T05:43:46;35.55;;;25.15;;
21979;SDS011;11154;48.558;9.234;2024-03-07T05:45:46;34.70;;;26.90;;
21979;SDS011;11154;48.558;9.234;2024-03-07T05:47:48;34.33;;;25.45;;
21979;SDS011;11154;48.558;9.234;2024-03-07T05:49:50;33.58;;;25.52;;
21979;SDS011;11154;48.558;9.234;2024-03-07T05:51:50;38.60;;;26.05;;
21979;SDS011;11154;48.558;9.234;2024-03-07T05:53:53;34.28;;;25.50;;
21979;SDS011;11154;48.558;9.234;2024-03-07T05:55:55;38.03;;;24.90;;
21979;SDS011;11154;48.558;9.234;2024-03-07T05:57:57;32.63;;;24.30;;
21979;SDS011;11154;48.558;9.234;2024-03-07T05:59:58;34.88;;;25.35;;
21979;SDS011;11154;48.558;9.234;2024-03-07T06:02:00;34.25;;;24.13;;
21979;SDS011;11154;48.558;9.234;2024-03-07T06:04:02;37.80;;;25.90;;
21979;SDS011;11154;48.558;9.234;2024-03-07T06:06:05;37.30;;;24.83;;
21979;SDS011;11154;48.558;9.234;2024-03-07T06:08:11;33.60;;;23.70;;
21979;SDS011;11154;48.558;9.234;2024-03-07T06:10:14;37.35;;;24.83;;
21979;SDS011;11154;48.558;9.234;2024-03-07T06:12:17;35.42;;;25.38;;
21979;SDS011;11154;48.558;9.234;2024-03-07T06:14:18;37.35;;;23.80;;
21979;SDS011;11154;48.558;9.234;2024-03-07T06:16:20;34.60;;;24.27;;
21979;SDS011;11154;48.558;9.234;2024-03-07T06:18:22;35.88;;;23.90;;
21979;SDS011;11154;48.558;9.234;2024-03-07T06:20:23;38.47;;;25.23;;
21979;SDS011;11154;48.558;9.234;2024-03-07T06:22:25;32.72;;;24.38;;
21979;SDS011;11154;48.558;9.234;2024-03-07T06:24:27;31.08;;;23.13;;
21979;SDS011;11154;48.558;9.234;2024-03-07T06:26:32;33.88;;;23.83;;
21979;SDS011;11154;48.558;9.234;2024-03-07T06:28:46;32.38;;;23.63;;
21979;SDS011;11154;48.558;9.234;2024-03-07T06:30:47;33.63;;;24.27;;
21979;SDS011;11154;48.558;9.234;2024-03-07T06:32:49;32.40;;;23.30;;
21979;SDS011;11154;48.558;9.234;2024-03-07T06:34:50;34.55;;;23.67;;
21979;SDS011;11154;48.558;9.234;2024-03-07T06:36:52;33.00;;;23.58;;
21979;SDS011;11154;48.558;9.234;2024-03-07T06:38:55;36.13;;;23.75;;
21979;SDS011;11154;48.558;9.234;2024-03-07T06:41:00;32.95;;;24.23;;
21979;SDS011;11154;48.558;9.234;2024-03-07T06:43:03;34.30;;;24.00;;
21979;SDS011;11154;48.558;9.234;2024-03-07T06:45:06;32.95;;;24.25;;
21979;SDS011;11154;48.558;9.234;2024-03-07T06:47:09;32.97;;;24.27;;
21979;SDS011;11154;48.558;9.234;2024-03-07T06:49:10;33.80;;;23.05;;
21979;SDS011;11154;48.558;9.234;2024-03-07T06:51:12;31.48;;;23.83;;
21979;SDS011;11154;48.558;9.234;2024-03-07T06:53:14;36.22;;;25.05;;
21979;SDS011;11154;48.558;9.234;2024-03-07T06:55:15;32.40;;;24.15;;
21979;SDS011;11154;48.558;9.234;2024-03-07T06:57:17;32.70;;;23.85;;
21979;SDS011;11154;48.558;9.234;2024-03-07T06:59:20;31.00;;;22.75;;
21979;SDS011;11154;48.558;9.234;2024-03-07T07:01:22;34.25;;;24.17;;
21979;SDS011;11154;48.558;9.234;2024-03-07T07:03:24;31.65;;;23.25;;
21979;SDS011;11154;48.558;9.234;2024-03-07T07:05:25;34.00;;;24.45;;
21979;SDS011;11154;48.558;9.234;2024-03-07T07:07:26;34.17;;;23.67;;
21979;SDS011;11154;48.558;9.234;2024-03-07T07:09:27;34.05;;;23.55;;
21979;SDS011;11154;48.558;9.234;2024-03-07T07:11:29;33.75;;;24.30;;
21979;SDS011;11154;48.558;9.234;2024-03-07T07:13:31;34.80;;;24.45;;
21979;SDS011;11154;48.558;9.234;2024-03-07T07:15:34;35.08;;;24.02;;
21979;SDS011;11154;48.558;9.234;2024-03-07T07:17:36;37.55;;;24.45;;
21979;SDS011;11154;48.558;9.234;2024-03-07T07:19:37;32.28;;;23.52;;
21979;SDS011;11154;48.558;9.234;2024-03-07T07:21:40;31.65;;;23.98;;
21979;SDS011;11154;48.558;9.234;2024-03-07T07:23:42;38.78;;;24.85;;
21979;SDS011;11154;48.558;9.234;2024-03-07T07:25:43;31.98;;;23.77;;
21979;SDS011;11154;48.558;9.234;2024-03-07T07:27:45;33.92;;;24.40;;
21979;SDS011;11154;48.558;9.234;2024-03-07T07:29:47;35.78;;;24.88;;
21979;SDS011;11154;48.558;9.234;2024-03-07T07:31:50;33.15;;;24.45;;
21979;SDS011;11154;48.558;9.234;2024-03-07T07:33:52;32.75;;;25.45;;
21979;SDS011;11154;48.558;9.234;2024-03-07T07:35:53;34.78;;;26.15;;
21979;SDS011;11154;48.558;9.234;2024-03-07T07:37:55;35.17;;;23.85;;
21979;SDS011;11154;48.558;9.234;2024-03-07T07:39:56;31.20;;;23.55;;
21979;SDS011;11154;48.558;9.234;2024-03-07T07:41:57;31.67;;;23.25;;
21979;SDS011;11154;48.558;9.234;2024-03-07T07:43:59;32.38;;;23.20;;
21979;SDS011;11154;48.558;9.234;2024-03-07T07:46:01;31.73;;;23.15;;
21979;SDS011;11154;48.558;9.234;2024-03-07T07:48:06;34.22;;;23.85;;
21979;SDS011;11154;48.558;9.234;2024-03-07T07:50:08;30.65;;;22.77;;
21979;SDS011;11154;48.558;9.234;2024-03-07T07:52:13;34.55;;;24.65;;
21979;SDS011;11154;48.558;9.234;2024-03-07T07:54:16;31.67;;;23.90;;
21979;SDS011;11154;48.558;9.234;2024-03-07T07:56:17;33.45;;;23.27;;
21979;SDS011;11154;48.558;9.234;2024-03-07T07:58:19;31.85;;;23.63;;
21979;SDS011;11154;48.558;9.234;2024-03-07T08:00:22;34.28;;;24.10;;
21979;SDS011;11154;48.558;9.234;2024-03-07T08:02:23;34.67;;;23.92;;
21979;SDS011;11154;48.558;9.234;2024-03-07T08:04:26;34.83;;;24.65;;
21979;SDS011;11154;48.558;9.234;2024-03-07T08:06:28;36.58;;;25.23;;
21979;SDS011;11154;48.558;9.234;2024-03-07T08:08:30;34.13;;;24.80;;
21979;SDS011;11154;48.558;9.234;2024-03-07T08:10:32;39.47;;;25.85;;
21979;SDS011;11154;48.558;9.234;2024-03-07T08:12:34;40.05;;;25.50;;
21979;SDS011;11154;48.558;9.234;2024-03-07T08:14:37;37.78;;;26.52;;
21979;SDS011;11154;48.558;9.234;2024-03-07T08:16:38;35.22;;;25.02;;
21979;SDS011;11154;48.558;9.234;2024-03-07T08:18:40;42.33;;;25.30;;
21979;SDS011;11154;48.558;9.234;2024-03-07T08:20:43;37.85;;;25.95;;
21979;SDS011;11154;48.558;9.234;2024-03-07T08:22:45;38.08;;;25.25;;
21979;SDS011;11154;48.558;9.234;2024-03-07T08:24:45;37.38;;;25.73;;
21979;SDS011;11154;48.558;9.234;2024-03-07T08:26:47;37.58;;;26.05;;
21979;SDS011;11154;48.558;9.234;2024-03-07T08:28:48;36.15;;;27.38;;
21979;SDS011;11154;48.558;9.234;2024-03-07T08:30:49;39.22;;;25.13;;
21979;SDS011;11154;48.558;9.234;2024-03-07T08:32:51;35.10;;;25.10;;
21979;SDS011;11154;48.558;9.234;2024-03-07T08:34:54;39.72;;;26.08;;
21979;SDS011;11154;48.558;9.234;2024-03-07T08:36:56;37.45;;;25.85;;
21979;SDS011;11154;48.558;9.234;2024-03-07T08:38:58;35.72;;;24.58;;
21979;SDS011;11154;48.558;9.234;2024-03-07T08:40:59;32.58;;;24.83;;
21979;SDS011;11154;48.558;9.234;2024-03-07T08:43:00;34.47;;;24.52;;
21979;SDS011;11154;48.558;9.234;2024-03-07T08:45:03;35.47;;;25.80;;
21979;SDS011;11154;48.558;9.234;2024-03-07T08:47:05;34.03;;;24.65;;
21979;SDS011;11154;48.558;9.234;2024-03-07T08:49:07;38.33;;;25.23;;
21979;SDS011;11154;48.558;9.234;2024-03-07T08:51:13;38.72;;;27.30;;
21979;SDS011;11154;48.558;9.234;2024-03-07T08:53:17;34.70;;;24.88;;
21979;SDS011;11154;48.558;9.234;2024-03-07T08:55:19;36.25;;;25.48;;
21979;SDS011;11154;48.558;9.234;2024-03-07T08:57:22;32.78;;;24.75;;
21979;SDS011;11154;48.558;9.234;2024-03-07T08:59:23;35.08;;;24.23;;
21979;SDS011;11154;48.558;9.234;2024-03-07T09:01:25;37.65;;;24.02;;
21979;SDS011;11154;48.558;9.234;2024-03-07T09:03:26;34.35;;;23.67;;
21979;SDS011;11154;48.558;9.234;2024-03-07T09:05:27;33.90;;;23.70;;
21979;SDS011;11154;48.558;9.234;2024-03-07T09:07:29;32.25;;;23.23;;
21979;SDS011;11154;48.558;9.234;2024-03-07T09:09:32;29.85;;;22.05;;
21979;SDS011;11154;48.558;9.234;2024-03-07T09:11:34;34.75;;;24.38;;
21979;SDS011;11154;48.558;9.234;2024-03-07T09:13:36;33.10;;;23.10;;
21979;SDS011;11154;48.558;9.234;2024-03-07T09:15:39;30.60;;;23.52;;
21979;SDS011;11154;48.558;9.234;2024-03-07T09:17:40;33.42;;;24.75;;
21979;SDS011;11154;48.558;9.234;2024-03-07T09:19:42;35.65;;;25.58;;
21979;SDS011;11154;48.558;9.234;2024-03-07T09:21:44;34.28;;;25.08;;
21979;SDS011;11154;48.558;9.234;2024-03-07T09:23:46;34.17;;;25.88;;
21979;SDS011;11154;48.558;9.234;2024-03-07T09:25:48;31.95;;;23.63;;
21979;SDS011;11154;48.558;9.234;2024-03-07T09:27:50;34.53;;;25.30;;
21979;SDS011;11154;48.558;9.234;2024-03-07T09:29:51;32.13;;;23.33;;
21979;SDS011;11154;48.558;9.234;2024-03-07T09:31:53;35.42;;;24.20;;
21979;SDS011;11154;48.558;9.234;2024-03-07T09:33:55;34.75;;;24.90;;
21979;SDS011;11154;48.558;9.234;2024-03-07T09:35:58;39.47;;;24.38;;
21979;SDS011;11154;48.558;9.234;2024-03-07T09:38:00;37.22;;;25.92;;
21979;SDS011;11154;48.558;9.234;2024-03-07T09:40:01;34.38;;;24.77;;
21979;SDS011;11154;48.558;9.234;2024-03-07T09:42:06;35.20;;;24.73;;
21979;SDS011;11154;48.558;9.234;2024-03-07T09:44:09;34.42;;;25.58;;
21979;SDS011;11154;48.558;9.234;2024-03-07T09:46:14;33.58;;;24.85;;
21979;SDS011;11154;48.558;9.234;2024-03-07T09:48:16;36.65;;;26.70;;
21979;SDS011;11154;48.558;9.234;2024-03-07T09:50:20;37.92;;;24.77;;
21979;SDS011;11154;48.558;9.234;2024-03-07T09:52:21;35.50;;;23.73;;
21979;SDS011;11154;48.558;9.234;2024-03-07T09:54:25;33.88;;;24.45;;
21979;SDS011;11154;48.558;9.234;2024-03-07T09:56:28;37.88;;;25.35;;
21979;SDS011;11154;48.558;9.234;2024-03-07T09:58:33;36.30;;;24.88;;
21979;SDS011;11154;48.558;9.234;2024-03-07T10:00:37;33.40;;;24.40;;
21979;SDS011;11154;48.558;9.234;2024-03-07T10:02:40;34.35;;;25.42;;
21979;SDS011;11154;48.558;9.234;2024-03-07T10:04:42;36.75;;;24.92;;
21979;SDS011;11154;48.558;9.234;2024-03-07T10:06:45;33.90;;;25.02;;
21979;SDS011;11154;48.558;9.234;2024-03-07T10:08:46;33.63;;;24.88;;
21979;SDS011;11154;48.558;9.234;2024-03-07T10:10:48;36.15;;;24.30;;
21979;SDS011;11154;48.558;9.234;2024-03-07T10:12:51;34.38;;;24.33;;
21979;SDS011;11154;48.558;9.234;2024-03-07T10:14:55;37.80;;;25.75;;
21979;SDS011;11154;48.558;9.234;2024-03-07T10:16:57;34.88;;;25.17;;
21979;SDS011;11154;48.558;9.234;2024-03-07T10:18:59;35.47;;;25.13;;
21979;SDS011;11154;48.558;9.234;2024-03-07T10:21:05;35.67;;;24.75;;
21979;SDS011;11154;48.558;9.234;2024-03-07T10:23:06;35.13;;;24.13;;
21979;SDS011;11154;48.558;9.234;2024-03-07T10:25:08;35.47;;;24.95;;
21979;SDS011;11154;48.558;9.234;2024-03-07T10:27:10;37.95;;;25.02;;
21979;SDS011;11154;48.558;9.234;2024-03-07T10:29:12;32.78;;;24.23;;
21979;SDS011;11154;48.558;9.234;2024-03-07T10:31:28;33.63;;;24.50;;
21979;SDS011;11154;48.558;9.234;2024-03-07T10:33:30;33.42;;;24.08;;
21979;SDS011;11154;48.558;9.234;2024-03-07T10:35:34;34.80;;;25.65;;
21979;SDS011;11154;48.558;9.234;2024-03-07T10:37:35;33.30;;;24.13;;
21979;SDS011;11154;48.558;9.234;2024-03-07T10:39:36;34.88;;;24.23;;
21979;SDS011;11154;48.558;9.234;2024-03-07T10:41:46;36.70;;;24.75;;
21979;SDS011;11154;48.558;9.234;2024-03-07T10:43:49;35.63;;;23.67;;
21979;SDS011;11154;48.558;9.234;2024-03-07T10:45:56;32.47;;;23.33;;
21979;SDS011;11154;48.558;9.234;2024-03-07T10:48:02;34.83;;;24.00;;
21979;SDS011;11154;48.558;9.234;2024-03-07T10:50:09;35.55;;;23.83;;
21979;SDS011;11154;48.558;9.234;2024-03-07T10:52:18;33.13;;;22.88;;
21979;SDS011;11154;48.558;9.234;2024-03-07T10:54:33;36.35;;;23.90;;
21979;SDS011;11154;48.558;9.234;2024-03-07T10:56:47;40.35;;;25.75;;
21979;SDS011;11154;48.558;9.234;2024-03-07T10:58:58;32.33;;;23.23;;
21979;SDS011;11154;48.558;9.234;2024-03-07T11:01:05;37.00;;;23.42;;
21979;SDS011;11154;48.558;9.234;2024-03-07T11:03:12;33.10;;;23.30;;
21979;SDS011;11154;48.558;9.234;2024-03-07T11:05:15;32.35;;;23.10;;
21979;SDS011;11154;48.558;9.234;2024-03-07T11:07:18;35.53;;;24.10;;
21979;SDS011;11154;48.558;9.234;2024-03-07T11:09:21;34.05;;;23.10;;
21979;SDS011;11154;48.558;9.234;2024-03-07T11:11:29;32.00;;;22.33;;
21979;SDS011;11154;48.558;9.234;2024-03-07T11:13:31;34.92;;;22.20;;
21979;SDS011;11154;48.558;9.234;2024-03-07T11:15:34;33.85;;;22.83;;
21979;SDS011;11154;48.558;9.234;2024-03-07T11:17:36;33.05;;;22.17;;
21979;SDS011;11154;48.558;9.234;2024-03-07T11:19:40;32.75;;;22.48;;
21979;SDS011;11154;48.558;9.234;2024-03-07T11:21:42;37.33;;;22.52;;
21979;SDS011;11154;48.558;9.234;2024-03-07T11:23:44;37.55;;;23.05;;
21979;SDS011;11154;48.558;9.234;2024-03-07T11:25:47;34.90;;;22.17;;
21979;SDS011;11154;48.558;9.234;2024-03-07T11:27:51;31.27;;;21.80;;
21979;SDS011;11154;48.558;9.234;2024-03-07T11:29:53;33.85;;;21.13;;
21979;SDS011;11154;48.558;9.234;2024-03-07T11:31:54;33.78;;;21.08;;
21979;SDS011;11154;48.558;9.234;2024-03-07T11:34:14;34.17;;;21.92;;
21979;SDS011;11154;48.558;9.234;2024-03-07T11:38:47;37.35;;;22.70;;
21979;SDS011;11154;48.558;9.234;2024-03-07T11:40:50;35.75;;;22.05;;
21979;SDS011;11154;48.558;9.234;2024-03-07T11:42:53;34.95;;;21.92;;
21979;SDS011;11154;48.558;9.234;2024-03-07T11:44:57;35.60;;;23.80;;
21979;SDS011;11154;48.558;9.234;2024-03-07T11:46:59;30.17;;;21.35;;
21979;SDS011;11154;48.558;9.234;2024-03-07T11:49:08;32.72;;;22.13;;
21979;SDS011;11154;48.558;9.234;2024-03-07T11:51:14;33.63;;;22.38;;
21979;SDS011;11154;48.558;9.234;2024-03-07T11:53:22;34.03;;;23.58;;
21979;SDS011;11154;48.558;9.234;2024-03-07T11:55:24;35.65;;;21.50;;
21979;SDS011;11154;48.558;9.234;2024-03-07T11:57:25;35.50;;;22.48;;
21979;SDS011;11154;48.558;9.234;2024-03-07T11:59:32;39.00;;;22.65;;